createdAt,value
2019-05-28T00:00:17.628Z,99.90
2019-05-28T00:02:46.949Z,99.90
2019-05-28T00:05:16.459Z,99.90
2019-05-28T00:07:46.923Z,99.90
2019-05-28T00:10:16.752Z,99.90
2019-05-28T00:12:46.136Z,99.90
2019-05-28T00:15:15.883Z,99.90
2019-05-28T00:17:45.260Z,99.90
2019-05-28T00:20:15.629Z,99.90
2019-05-28T00:22:44.953Z,99.90
2019-05-28T00:25:14.552Z,99.90
2019-05-28T00:27:43.872Z,99.90
2019-05-28T00:30:20.361Z,99.90
2019-05-28T00:32:45.052Z,99.90
2019-05-28T00:35:15.289Z,99.90
2019-05-28T00:37:44.612Z,99.90
2019-05-28T00:40:14.700Z,99.90
2019-05-28T00:42:44.015Z,99.90
2019-05-28T00:45:13.817Z,99.90
2019-05-28T00:47:43.203Z,99.90
2019-05-28T00:50:14.445Z,99.90
2019-05-28T00:52:43.772Z,99.90
2019-05-28T00:55:13.651Z,99.90
2019-05-28T00:57:45.932Z,99.90
2019-05-28T01:00:15.710Z,99.90
2019-05-28T01:02:45.029Z,99.90
2019-05-28T01:05:14.595Z,99.90
2019-05-28T01:07:43.919Z,99.90
2019-05-28T01:10:14.110Z,99.90
2019-05-28T01:12:43.441Z,99.90
2019-05-28T01:15:12.838Z,99.90
2019-05-28T01:17:42.180Z,99.90
2019-05-28T01:20:11.918Z,99.90
2019-05-28T01:22:41.276Z,99.90
2019-05-28T01:25:10.829Z,99.90
2019-05-28T01:27:40.261Z,99.90
2019-05-28T01:30:10.283Z,99.90
2019-05-28T01:32:39.693Z,99.90
2019-05-28T01:35:09.084Z,99.90
2019-05-28T01:37:38.404Z,99.90
2019-05-28T01:40:08.066Z,99.90
2019-05-28T01:42:37.436Z,99.90
2019-05-28T01:45:07.511Z,99.90
2019-05-28T01:47:37.168Z,99.90
2019-05-28T01:50:08.494Z,99.90
2019-05-28T01:52:38.150Z,99.90
2019-05-28T01:55:08.231Z,99.90
2019-05-28T01:57:37.620Z,99.90
2019-05-28T02:00:10.405Z,99.90
2019-05-28T02:02:39.715Z,99.90
2019-05-28T02:05:09.804Z,99.90
2019-05-28T02:07:40.098Z,99.90
2019-05-28T02:10:09.955Z,99.90
2019-05-28T02:12:39.271Z,99.90
2019-05-28T02:15:09.443Z,99.90
2019-05-28T02:17:38.752Z,99.90
2019-05-28T02:20:10.146Z,99.90
2019-05-28T02:22:39.520Z,99.90
2019-05-28T02:25:09.799Z,99.90
2019-05-28T02:27:39.112Z,99.90
2019-05-28T02:30:13.710Z,99.90
2019-05-28T02:32:43.091Z,99.90
2019-05-28T02:35:13.082Z,99.90
2019-05-28T02:37:42.387Z,99.90
2019-05-28T02:40:12.460Z,99.90
2019-05-28T02:42:41.798Z,99.90
2019-05-28T02:45:11.955Z,99.90
2019-05-28T02:47:41.258Z,99.90
2019-05-28T02:50:11.412Z,99.90
2019-05-28T02:52:42.160Z,99.90
2019-05-28T02:55:12.156Z,99.90
2019-05-28T02:57:42.712Z,99.90
2019-05-28T03:00:17.534Z,99.90
2019-05-28T03:02:50.331Z,99.90
2019-05-28T03:05:19.753Z,99.90
2019-05-28T03:07:50.711Z,99.90
2019-05-28T03:11:02.387Z,99.90
2019-05-28T03:13:09.247Z,99.90
2019-05-28T03:15:41.715Z,99.90
2019-05-28T03:18:12.272Z,99.90
2019-05-28T03:20:42.844Z,99.90
2019-05-28T03:23:13.001Z,99.90
2019-05-28T03:25:42.407Z,99.90
2019-05-28T03:28:11.859Z,99.90
2019-05-28T03:30:41.290Z,99.90
2019-05-28T03:33:10.865Z,99.90
2019-05-28T03:35:43.035Z,99.90
2019-05-28T03:38:12.436Z,99.90
2019-05-28T03:40:44.192Z,99.90
2019-05-28T03:43:14.415Z,99.90
2019-05-28T03:45:43.736Z,99.90
2019-05-28T03:48:13.154Z,99.90
2019-05-28T03:50:42.581Z,99.90
2019-05-28T03:53:11.982Z,99.90
2019-05-28T03:55:41.381Z,99.90
2019-05-28T03:58:10.723Z,99.90
2019-05-28T04:00:40.326Z,99.90
2019-05-28T04:03:09.715Z,99.90
2019-05-28T04:05:39.049Z,99.90
2019-05-28T04:08:08.546Z,99.90
2019-05-28T04:10:38.077Z,99.90
2019-05-28T04:13:07.565Z,99.90
2019-05-28T04:15:36.957Z,99.90
2019-05-28T04:18:06.361Z,99.90
2019-05-28T04:20:35.679Z,99.90
2019-05-28T04:23:08.108Z,99.90
2019-05-28T04:25:37.523Z,99.90
2019-05-28T04:28:07.219Z,99.90
2019-05-28T04:30:36.535Z,99.90
2019-05-28T04:33:05.904Z,99.90
2019-05-28T04:35:35.228Z,99.90
2019-05-28T04:38:04.551Z,99.90
2019-05-28T04:40:33.896Z,99.90
2019-05-28T04:43:03.462Z,99.90
2019-05-28T04:45:32.879Z,99.90
2019-05-28T04:48:02.211Z,99.90
2019-05-28T04:50:31.568Z,99.90
2019-05-28T04:53:00.971Z,99.90
2019-05-28T04:55:30.303Z,99.90
2019-05-28T04:57:59.735Z,99.90
2019-05-28T05:00:29.092Z,99.90
2019-05-28T05:03:00.667Z,99.90
2019-05-28T05:05:29.652Z,99.90
2019-05-28T05:07:58.991Z,99.90
2019-05-28T05:10:28.401Z,99.90
2019-05-28T05:12:57.716Z,99.90
2019-05-28T05:15:27.063Z,99.90
2019-05-28T05:17:56.380Z,99.90
2019-05-28T05:20:25.945Z,99.90
2019-05-28T05:22:55.296Z,99.90
2019-05-28T05:25:24.628Z,99.90
2019-05-28T05:27:53.939Z,99.90
2019-05-28T05:30:23.473Z,99.90
2019-05-28T05:32:52.852Z,94.50
2019-05-28T05:35:22.176Z,92.20
2019-05-28T05:37:51.546Z,93.70
2019-05-28T05:40:21.088Z,92.40
2019-05-28T05:42:50.433Z,88.90
2019-05-28T05:45:20.070Z,80.50
2019-05-28T05:47:49.383Z,67.60
2019-05-28T05:50:19.587Z,59.70
2019-05-28T05:52:48.914Z,56.10
2019-05-28T05:55:18.230Z,52.00
2019-05-28T05:57:47.650Z,48.70
2019-05-28T06:00:18.748Z,47.40
2019-05-28T06:02:48.062Z,45.20
2019-05-28T06:05:17.656Z,45.40
2019-05-28T06:07:47.035Z,44.00
2019-05-28T06:10:16.840Z,41.80
2019-05-28T06:12:46.170Z,39.10
2019-05-28T06:15:15.631Z,37.10
2019-05-28T06:17:44.947Z,36.40
2019-05-28T06:20:14.825Z,40.90
2019-05-28T06:22:44.140Z,44.10
2019-05-28T06:25:13.934Z,45.20
2019-05-28T06:27:43.262Z,45.10
2019-05-28T06:30:13.773Z,48.80
2019-05-28T06:32:43.087Z,52.50
2019-05-28T06:35:14.191Z,56.90
2019-05-28T06:37:44.483Z,60.50
2019-05-28T06:40:14.153Z,61.20
2019-05-28T06:42:43.469Z,60.00
2019-05-28T06:45:13.049Z,60.00
2019-05-28T06:47:45.447Z,60.70
2019-05-28T06:50:13.789Z,64.50
2019-05-28T06:52:43.184Z,70.00
2019-05-28T06:55:12.698Z,77.80
2019-05-28T06:57:42.129Z,82.20
2019-05-28T07:00:11.956Z,82.40
2019-05-28T07:02:41.280Z,77.00
2019-05-28T07:05:11.404Z,67.90
2019-05-28T07:07:40.799Z,66.20
2019-05-28T07:10:11.799Z,64.40
2019-05-28T07:12:41.145Z,57.40
2019-05-28T07:15:12.394Z,53.50
2019-05-28T07:17:41.767Z,48.70
2019-05-28T07:20:11.554Z,47.20
2019-05-28T07:22:40.891Z,47.80
2019-05-28T07:25:10.553Z,45.50
2019-05-28T07:27:39.875Z,47.80
2019-05-28T07:30:09.354Z,50.40
2019-05-28T07:32:38.743Z,52.80
2019-05-28T07:35:08.522Z,53.70
2019-05-28T07:37:37.936Z,49.50
2019-05-28T07:40:07.607Z,45.20
2019-05-28T07:42:38.076Z,41.50
2019-05-28T07:45:07.910Z,38.90
2019-05-28T07:47:37.343Z,36.30
2019-05-28T07:50:08.097Z,34.30
2019-05-28T07:52:37.537Z,32.10
2019-05-28T07:55:08.164Z,31.70
2019-05-28T07:57:37.497Z,31.30
2019-05-28T08:00:07.523Z,30.40
2019-05-28T08:02:36.872Z,29.40
2019-05-28T08:05:07.208Z,29.80
2019-05-28T08:07:36.624Z,33.10
2019-05-28T08:10:07.538Z,34.80
2019-05-28T08:12:36.876Z,35.30
2019-05-28T08:15:06.687Z,35.40
2019-05-28T08:17:36.101Z,38.70
2019-05-28T08:20:06.533Z,39.70
2019-05-28T08:22:42.162Z,39.60
2019-05-28T08:25:23.618Z,41.40
2019-05-28T08:27:38.436Z,37.90
2019-05-28T08:30:08.094Z,35.60
2019-05-28T08:32:37.494Z,35.60
2019-05-28T08:37:40.708Z,35.10
2019-05-28T08:40:11.099Z,35.80
2019-05-28T08:42:40.543Z,36.20
2019-05-28T08:45:10.078Z,37.90
2019-05-28T08:47:39.439Z,39.30
2019-05-28T08:50:09.107Z,39.90
2019-05-28T08:52:38.519Z,42.40
2019-05-28T08:55:09.455Z,42.80
2019-05-28T08:57:39.418Z,43.70
2019-05-28T09:00:10.476Z,43.00
2019-05-28T09:02:39.930Z,42.30
2019-05-28T09:05:25.114Z,43.60
2019-05-28T09:07:40.473Z,46.00
2019-05-28T09:10:10.141Z,44.50
2019-05-28T09:12:39.656Z,45.10
2019-05-28T09:15:09.178Z,44.80
2019-05-28T09:17:38.665Z,45.00
2019-05-28T09:20:08.396Z,47.30
2019-05-28T09:22:38.811Z,46.80
2019-05-28T09:25:08.375Z,45.60
2019-05-28T09:27:37.702Z,46.20
2019-05-28T09:30:07.908Z,48.10
2019-05-28T09:32:37.532Z,50.80
2019-05-28T09:35:08.505Z,49.00
2019-05-28T09:37:37.851Z,50.80
2019-05-28T09:40:08.889Z,49.70
2019-05-28T09:42:38.327Z,47.90
2019-05-28T09:45:21.926Z,48.70
2019-05-28T09:47:40.219Z,50.00
2019-05-28T09:50:29.170Z,50.20
2019-05-28T09:52:53.737Z,52.00
2019-05-28T09:55:12.879Z,52.70
2019-05-28T09:57:47.376Z,53.30
2019-05-28T10:00:17.129Z,52.10
2019-05-28T10:02:46.621Z,51.00
2019-05-28T10:05:16.498Z,52.90
2019-05-28T10:07:48.017Z,51.10
2019-05-28T10:10:17.693Z,53.60
2019-05-28T10:12:48.148Z,53.40
2019-05-28T10:15:17.864Z,52.30
2019-05-28T10:17:47.204Z,51.40
2019-05-28T10:20:17.446Z,51.90
2019-05-28T10:22:46.757Z,51.70
2019-05-28T10:25:16.649Z,52.00
2019-05-28T10:28:00.138Z,51.20
2019-05-28T10:30:18.009Z,51.40
2019-05-28T10:32:47.330Z,51.30
2019-05-28T10:35:18.987Z,50.70
2019-05-28T10:37:48.877Z,51.90
2019-05-28T10:40:18.647Z,53.20
2019-05-28T10:42:48.044Z,51.70
2019-05-28T10:45:17.955Z,51.00
2019-05-28T10:47:47.327Z,51.60
2019-05-28T10:50:17.958Z,51.10
2019-05-28T10:52:47.414Z,53.20
2019-05-28T10:55:16.991Z,56.60
2019-05-28T10:57:46.391Z,53.40
2019-05-28T11:00:15.960Z,54.80
2019-05-28T11:02:45.294Z,55.50
2019-05-28T11:05:16.555Z,55.30
2019-05-28T11:07:45.883Z,55.60
2019-05-28T11:10:24.237Z,55.20
2019-05-28T11:12:48.460Z,55.50
2019-05-28T11:15:18.528Z,55.10
2019-05-28T11:17:47.889Z,56.70
2019-05-28T11:20:19.070Z,57.30
2019-05-28T11:22:48.481Z,57.20
2019-05-28T11:25:18.403Z,58.50
2019-05-28T11:27:47.740Z,53.00
2019-05-28T11:30:17.716Z,53.40
2019-05-28T11:32:47.045Z,53.10
2019-05-28T11:35:17.615Z,53.90
2019-05-28T11:37:46.944Z,54.10
2019-05-28T11:40:19.715Z,53.90
2019-05-28T11:42:49.063Z,54.20
2019-05-28T11:45:19.042Z,54.80
2019-05-28T11:47:51.002Z,53.10
2019-05-28T11:50:19.533Z,54.00
2019-05-28T11:52:49.884Z,55.10
2019-05-28T11:55:19.550Z,54.20
2019-05-28T11:57:48.893Z,54.40
2019-05-28T12:00:18.845Z,56.20
2019-05-28T12:02:48.394Z,54.80
2019-05-28T12:05:20.143Z,53.60
2019-05-28T12:07:51.861Z,55.40
2019-05-28T12:10:20.814Z,55.30
2019-05-28T12:12:50.176Z,53.50
2019-05-28T12:15:20.108Z,54.10
2019-05-28T12:17:49.459Z,56.80
2019-05-28T12:20:20.998Z,53.70
2019-05-28T12:23:08.959Z,53.70
2019-05-28T12:25:21.877Z,53.90
2019-05-28T12:27:51.391Z,52.70
2019-05-28T12:30:21.363Z,54.40
2019-05-28T12:32:50.682Z,55.70
2019-05-28T12:35:28.341Z,55.20
2019-05-28T12:37:51.657Z,54.40
2019-05-28T12:40:21.560Z,56.10
2019-05-28T12:42:50.972Z,55.80
2019-05-28T12:45:34.419Z,54.60
2019-05-28T12:48:12.236Z,55.20
2019-05-28T12:50:24.226Z,55.70
2019-05-28T12:52:53.543Z,53.10
2019-05-28T12:55:23.342Z,52.20
2019-05-28T12:57:52.831Z,51.80
2019-05-28T13:00:23.128Z,50.80
2019-05-28T13:02:52.546Z,51.00
2019-05-28T13:05:25.203Z,51.20
2019-05-28T13:08:07.319Z,53.60
2019-05-28T13:10:25.827Z,52.50
2019-05-28T13:12:55.436Z,52.90
2019-05-28T13:15:25.112Z,52.20
2019-05-28T13:17:54.438Z,52.40
2019-05-28T13:20:23.860Z,54.40
2019-05-28T13:22:53.204Z,56.30
2019-05-28T13:25:22.848Z,56.70
2019-05-28T13:27:52.215Z,56.40
2019-05-28T13:30:21.628Z,57.30
2019-05-28T13:32:51.308Z,57.70
2019-05-28T13:35:21.218Z,56.90
2019-05-28T13:37:50.600Z,58.00
2019-05-28T13:40:20.361Z,57.60
2019-05-28T13:42:50.106Z,57.00
2019-05-28T13:45:20.019Z,55.60
2019-05-28T13:47:50.584Z,54.90
2019-05-28T13:50:20.586Z,55.50
2019-05-28T13:52:50.131Z,57.90
2019-05-28T13:55:20.356Z,56.70
2019-05-28T13:57:50.669Z,56.50
2019-05-28T14:00:21.638Z,57.20
2019-05-28T14:02:51.047Z,58.00
2019-05-28T14:05:20.552Z,57.70
2019-05-28T14:07:49.879Z,55.90
2019-05-28T14:10:20.347Z,56.60
2019-05-28T14:12:49.687Z,58.70
2019-05-28T14:15:19.270Z,58.00
2019-05-28T14:17:48.600Z,57.80
2019-05-28T14:20:20.094Z,59.30
2019-05-28T14:22:49.492Z,59.90
2019-05-28T14:25:19.132Z,59.00
2019-05-28T14:27:48.512Z,59.30
2019-05-28T14:30:19.918Z,59.40
2019-05-28T14:32:49.277Z,60.10
2019-05-28T14:35:18.593Z,58.80
2019-05-28T14:37:47.930Z,59.20
2019-05-28T14:40:17.623Z,59.20
2019-05-28T14:42:47.025Z,56.40
2019-05-28T14:45:17.064Z,59.50
2019-05-28T14:47:46.401Z,60.40
2019-05-28T14:50:16.329Z,61.50
2019-05-28T14:52:45.656Z,60.80
2019-05-28T14:55:15.549Z,60.00
2019-05-28T14:57:44.961Z,59.30
2019-05-28T15:00:17.391Z,58.10
2019-05-28T15:02:46.795Z,60.80
2019-05-28T15:05:16.476Z,62.50
2019-05-28T15:07:45.803Z,65.10
2019-05-28T15:10:16.368Z,67.30
2019-05-28T15:12:46.720Z,64.30
2019-05-28T15:15:34.637Z,64.30
2019-05-28T15:17:48.956Z,66.30
2019-05-28T15:20:18.747Z,65.40
2019-05-28T15:22:49.112Z,66.50
2019-05-28T15:25:18.487Z,67.20
2019-05-28T15:27:47.940Z,67.40
2019-05-28T15:30:17.856Z,68.10
2019-05-28T15:32:47.368Z,68.20
2019-05-28T15:35:16.850Z,69.60
2019-05-28T15:37:46.184Z,71.20
2019-05-28T15:40:16.839Z,73.80
2019-05-28T15:42:46.175Z,71.70
2019-05-28T15:45:15.682Z,70.60
2019-05-28T15:47:45.265Z,71.90
2019-05-28T15:50:16.345Z,73.20
2019-05-28T15:52:45.764Z,71.50
2019-05-28T15:55:15.298Z,67.70
2019-05-28T15:57:44.663Z,71.10
2019-05-28T16:00:22.535Z,71.80
2019-05-28T16:02:52.824Z,74.30
2019-05-28T16:05:22.380Z,70.70
2019-05-28T16:07:51.894Z,70.00
2019-05-28T16:10:21.579Z,71.60
2019-05-28T16:12:51.859Z,70.40
2019-05-28T16:15:21.280Z,71.80
2019-05-28T16:17:51.107Z,71.00
2019-05-28T16:20:20.712Z,72.60
2019-05-28T16:22:50.223Z,72.10
2019-05-28T16:25:19.668Z,70.60
2019-05-28T16:27:49.142Z,74.40
2019-05-28T16:30:19.065Z,76.20
2019-05-28T16:32:48.511Z,78.70
2019-05-28T16:35:20.233Z,79.70
2019-05-28T16:37:49.595Z,80.10
2019-05-28T16:40:20.865Z,80.40
2019-05-28T16:42:50.332Z,82.30
2019-05-28T16:45:21.455Z,82.70
2019-05-28T16:47:50.844Z,81.90
2019-05-28T16:50:20.246Z,81.90
2019-05-28T16:52:49.588Z,80.30
2019-05-28T16:55:19.601Z,79.70
2019-05-28T16:57:49.200Z,78.60
2019-05-28T17:00:18.740Z,76.70
2019-05-28T17:02:48.129Z,78.50
2019-05-28T17:05:17.868Z,77.50
2019-05-28T17:07:48.343Z,75.50
2019-05-28T17:10:31.722Z,75.70
2019-05-28T17:12:49.053Z,77.70
2019-05-28T17:15:19.284Z,75.60
2019-05-28T17:17:48.749Z,76.80
2019-05-28T17:20:18.472Z,76.90
2019-05-28T17:22:47.880Z,78.10
2019-05-28T17:25:17.799Z,79.50
2019-05-28T17:27:47.256Z,80.60
2019-05-28T17:30:22.744Z,82.30
2019-05-28T17:32:48.373Z,83.30
2019-05-28T17:35:17.884Z,84.80
2019-05-28T17:37:47.305Z,84.70
2019-05-28T17:40:21.637Z,85.90
2019-05-28T17:42:47.991Z,87.80
2019-05-28T17:45:18.019Z,89.40
2019-05-28T17:47:47.496Z,90.40
2019-05-28T17:50:16.904Z,90.70
2019-05-28T17:52:50.390Z,91.70
2019-05-28T17:55:17.467Z,92.40
2019-05-28T17:57:46.814Z,92.30
2019-05-28T18:00:17.587Z,93.20
2019-05-28T18:02:48.613Z,94.00
2019-05-28T18:05:18.228Z,94.60
2019-05-28T18:07:47.656Z,95.10
2019-05-28T18:10:17.420Z,95.20
2019-05-28T18:12:46.759Z,95.60
2019-05-28T18:15:17.149Z,95.30
2019-05-28T18:17:46.500Z,94.70
2019-05-28T18:20:16.861Z,94.90
2019-05-28T18:22:46.258Z,95.20
2019-05-28T18:25:15.577Z,96.10
2019-05-28T18:27:44.964Z,97.00
2019-05-28T18:30:15.050Z,97.60
2019-05-28T18:32:44.558Z,98.40
2019-05-28T18:35:14.008Z,98.70
2019-05-28T18:37:43.348Z,99.40
2019-05-28T18:40:13.395Z,99.90
2019-05-28T18:42:42.869Z,99.90
2019-05-28T18:45:13.319Z,99.90
2019-05-28T18:47:42.753Z,99.90
2019-05-28T18:50:12.419Z,99.90
2019-05-28T18:52:41.818Z,99.90
2019-05-28T18:55:11.744Z,99.90
2019-05-28T18:57:41.075Z,99.90
2019-05-28T19:00:11.088Z,99.90
2019-05-28T19:02:41.554Z,99.90
2019-05-28T19:05:11.106Z,99.90
2019-05-28T19:07:40.635Z,99.90
2019-05-28T19:10:10.671Z,99.90
2019-05-28T19:12:40.083Z,99.90
2019-05-28T19:15:09.944Z,99.90
2019-05-28T19:17:39.351Z,99.90
2019-05-28T19:20:09.740Z,99.90
2019-05-28T19:22:39.439Z,99.90
2019-05-28T19:25:12.927Z,99.90
2019-05-28T19:27:42.392Z,99.90
2019-05-28T19:30:12.045Z,99.90
2019-05-28T19:32:41.443Z,99.90
2019-05-28T19:35:11.059Z,99.90
2019-05-28T19:37:41.052Z,99.90
2019-05-28T19:40:10.824Z,99.90
2019-05-28T19:42:40.176Z,99.90
2019-05-28T19:45:09.977Z,99.90
2019-05-28T19:47:39.353Z,99.90
2019-05-28T19:50:09.477Z,99.90
2019-05-28T19:52:38.994Z,99.90
2019-05-28T19:55:08.706Z,99.90
2019-05-28T19:57:38.095Z,99.90
2019-05-28T20:00:09.148Z,99.90
2019-05-28T20:02:39.663Z,99.90
2019-05-28T20:05:09.429Z,99.90
2019-05-28T20:07:40.146Z,99.90
2019-05-28T20:10:10.496Z,99.90
2019-05-28T20:12:39.828Z,99.90
2019-05-28T20:15:10.742Z,99.90
2019-05-28T20:17:40.194Z,99.90
2019-05-28T20:20:10.449Z,99.90
2019-05-28T20:22:39.836Z,99.90
2019-05-28T20:25:09.979Z,99.90
2019-05-28T20:27:39.331Z,99.90
2019-05-28T20:30:11.423Z,99.90
2019-05-28T20:32:40.851Z,99.90
2019-05-28T20:35:11.034Z,99.90
2019-05-28T20:37:40.634Z,99.90
2019-05-28T20:40:10.832Z,99.90
2019-05-28T20:42:40.357Z,99.90
2019-05-28T20:45:11.850Z,99.90
2019-05-28T20:47:41.373Z,99.90
2019-05-28T20:50:13.008Z,99.90
2019-05-28T20:52:42.330Z,99.90
2019-05-28T20:55:11.829Z,99.90
2019-05-28T20:57:41.140Z,99.90
2019-05-28T21:00:11.263Z,99.90
2019-05-28T21:02:40.635Z,99.90
2019-05-28T21:05:10.402Z,99.90
2019-05-28T21:07:39.712Z,99.90
2019-05-28T21:10:10.857Z,99.90
2019-05-28T21:12:44.443Z,99.90
2019-05-28T21:15:15.169Z,99.90
2019-05-28T21:17:42.689Z,99.90
2019-05-28T21:20:12.768Z,99.90
2019-05-28T21:22:42.108Z,99.90
2019-05-28T21:25:11.596Z,99.90
2019-05-28T21:27:41.042Z,99.90
2019-05-28T21:30:10.887Z,99.90
2019-05-28T21:32:40.248Z,99.90
2019-05-28T21:35:09.894Z,99.90
2019-05-28T21:37:39.211Z,99.90
2019-05-28T21:40:09.737Z,99.90
2019-05-28T21:42:39.065Z,99.90
2019-05-28T21:45:09.149Z,99.90
2019-05-28T21:47:38.543Z,99.90
2019-05-28T21:50:09.429Z,99.90
2019-05-28T21:52:38.808Z,99.90
2019-05-28T21:55:08.839Z,99.90
2019-05-28T21:57:38.350Z,99.90
2019-05-28T22:00:12.480Z,99.90
2019-05-28T22:02:43.642Z,99.90
2019-05-28T22:05:13.652Z,99.90
2019-05-28T22:07:43.047Z,99.90
2019-05-28T22:10:12.922Z,99.90
2019-05-28T22:12:42.248Z,99.90
2019-05-28T22:15:12.068Z,99.90
2019-05-28T22:17:41.420Z,99.90
2019-05-28T22:20:10.972Z,99.90
2019-05-28T22:22:40.319Z,99.90
2019-05-28T22:25:10.402Z,99.90
2019-05-28T22:27:39.805Z,99.90
2019-05-28T22:30:11.344Z,99.90
2019-05-28T22:32:40.749Z,99.90
2019-05-28T22:35:10.520Z,99.90
2019-05-28T22:37:39.879Z,99.90
2019-05-28T22:40:11.546Z,99.90
2019-05-28T22:42:40.938Z,99.90
2019-05-28T22:45:10.410Z,99.90
2019-05-28T22:47:39.803Z,99.90
2019-05-28T22:50:21.945Z,99.90
2019-05-28T22:52:40.824Z,99.90
2019-05-28T22:55:10.376Z,99.90
2019-05-28T22:57:39.740Z,99.90
2019-05-28T23:00:09.914Z,99.90
2019-05-28T23:02:39.309Z,99.90
2019-05-28T23:05:09.309Z,99.90
2019-05-28T23:07:38.658Z,99.90
2019-05-28T23:10:09.751Z,99.90
2019-05-28T23:12:39.320Z,99.90
2019-05-28T23:15:10.468Z,99.90
2019-05-28T23:17:39.910Z,99.90
2019-05-28T23:20:11.234Z,99.90
2019-05-28T23:22:40.998Z,99.90
2019-05-28T23:25:11.732Z,99.90
2019-05-28T23:27:41.148Z,99.90
2019-05-28T23:30:24.342Z,99.90
2019-05-28T23:32:42.251Z,99.90
2019-05-28T23:35:12.716Z,99.90
2019-05-28T23:37:42.230Z,99.90
2019-05-28T23:40:13.251Z,99.90
2019-05-28T23:42:42.711Z,99.90
2019-05-28T23:45:13.972Z,99.90
2019-05-28T23:47:43.434Z,99.90
2019-05-28T23:50:17.636Z,99.90
2019-05-28T23:52:45.442Z,99.90
2019-05-28T23:55:15.038Z,99.90
2019-05-28T23:57:44.421Z,99.90
